Hjaltland — VSTY8 — position and weather

sailwx.info

Track history (hours):
 
Tides and Currents Weather Stations Pressure Air Temp Water Temp Dewpoint Dewpoint Depression Visibility Wind Speed Wind Dir Waves Ship Positions

Hjaltland

Operator: NorthLink Orkey & Shetland Ferries Ltd

Last reported at 2017-Sep-19 10:59 UTC. Time now 2017-Sep-19 11:23 UTC.
Position N 57°09' W 002°05'.

Type: Passenger vessel. MMSI: 235450000.

Date/timePositionNaut miles runAvg speedWind from/ knotsBaromVisibWave heightAir tempDewpointWater temp
2017-Sep-19 10:59N 57°09' W 002°05'0 0.0
2017-Sep-19 10:29N 57°09' W 002°05'0 0.0
2017-Sep-19 09:59N 57°09' W 002°05'0 0.0
2017-Sep-19 09:29N 57°09' W 002°05'0 0.0
2017-Sep-19 08:59N 57°09' W 002°05'0 0.0
2017-Sep-19 08:29N 57°09' W 002°05'0 0.0
2017-Sep-19 07:59N 57°09' W 002°05'0 0.0
2017-Sep-19 07:29N 57°09' W 002°05'0 0.0
2017-Sep-19 06:59N 57°09' W 002°05'0 0.0
2017-Sep-19 06:29N 57°09' W 002°05'0 0.0
2017-Sep-19 05:59N 57°09' W 002°05'1 1.1
2017-Sep-19 05:31N 57°09' W 002°05'714.4
2017-Sep-19 05:00N 57°14' W 001°55'2419.8
2017-Sep-19 03:49N 57°35' W 001°37'720.7
2017-Sep-19 03:30N 57°41' W 001°40'8220.1
2017-Sep-18 23:26N 58°57' W 002°38'817.9
2017-Sep-18 23:00N 59°01' W 002°51'4 3.4
2017-Sep-18 21:55N 58°60' W 002°58'511.7
2017-Sep-18 21:30N 59°01' W 002°49'12 0.6
2017-Sep-18 00:25N 59°04' W 002°27'512.1
2017-Sep-18 00:00N 59°00' W 002°34'612.2
2017-Sep-17 23:30N 59°00' W 002°46'612.0
2017-Sep-17 23:01N 59°01' W 002°57'1 1.2
2017-Sep-17 22:01N 58°60' W 002°58'0 1.2
2017-Sep-17 21:59N 58°60' W 002°58'715.4
2017-Sep-17 21:30N 58°60' W 002°44'7222.0
2017-Sep-17 18:13N 57°53' W 001°50'523.1
2017-Sep-17 18:01N 57°48' W 001°47'1223.4
2017-Sep-17 17:31N 57°37' W 001°40'1222.9
2017-Sep-17 16:59N 57°25' W 001°41'1223.9
2017-Sep-17 16:30N 57°16' W 001°53'1019.3
2017-Sep-17 16:01N 57°08' W 002°04'1 1.2
2017-Sep-17 15:30N 57°09' W 002°05'0 0.0
2017-Sep-17 15:00N 57°09' W 002°05'0 0.0
2017-Sep-17 14:30N 57°09' W 002°05'0 0.0
2017-Sep-17 14:00N 57°09' W 002°05'0 0.0
2017-Sep-17 13:30N 57°09' W 002°05'0 0.0
2017-Sep-17 13:00N 57°09' W 002°05'0 0.0
2017-Sep-17 12:30N 57°09' W 002°05'0 0.0
2017-Sep-17 12:00N 57°09' W 002°05'0 0.0
2017-Sep-17 11:30N 57°09' W 002°05'0 0.0
2017-Sep-17 11:00N 57°09' W 002°05'0 0.0
2017-Sep-17 10:30N 57°09' W 002°05'0 0.0
2017-Sep-17 10:00N 57°09' W 002°05'0 0.0
2017-Sep-17 09:30N 57°09' W 002°05'0 0.0
2017-Sep-17 09:00N 57°09' W 002°05'0 0.0
2017-Sep-17 08:30N 57°09' W 002°05'0 0.0
2017-Sep-17 08:00N 57°09' W 002°05'0 0.0
2017-Sep-17 07:30N 57°09' W 002°05'0 0.0
2017-Sep-17 07:00N 57°09' W 002°05'0 0.0
2017-Sep-17 06:30N 57°09' W 002°05'0 0.0
2017-Sep-17 06:00N 57°09' W 002°05'0 1.0
2017-Sep-17 05:31N 57°09' W 002°05'611.0
2017-Sep-17 05:01N 57°12' W 001°57'1015.6
2017-Sep-17 04:24N 57°20' W 001°48'615.2
2017-Sep-17 04:01N 57°25' W 001°42'911.6
2017-Sep-17 03:13N 57°34' W 001°37'312.4
2017-Sep-17 03:00N 57°37' W 001°37'612.2
2017-Sep-17 02:29N 57°43' W 001°38'612.6
2017-Sep-17 02:00N 57°49' W 001°37'14 0.5
2017-Sep-15 20:01N 57°35' W 001°38'114.3
2017-Sep-15 19:57N 57°34' W 001°38'814.8
2017-Sep-15 19:25N 57°26' W 001°39'1115.7
2017-Sep-15 18:43N 57°17' W 001°51'316.0
2017-Sep-15 18:30N 57°14' W 001°55'715.0
2017-Sep-15 18:00N 57°09' W 002°04'1 1.5
2017-Sep-15 17:29N 57°09' W 002°05'0 0.0
2017-Sep-15 16:59N 57°09' W 002°05'0 0.0
2017-Sep-15 16:29N 57°09' W 002°05'0 0.0
2017-Sep-15 15:59N 57°09' W 002°05'0 0.0
2017-Sep-15 15:29N 57°09' W 002°05'0 0.0
2017-Sep-15 14:59N 57°09' W 002°05'0 0.0
2017-Sep-15 14:29N 57°09' W 002°05'0 0.0
2017-Sep-15 13:59N 57°09' W 002°05'0 0.0
2017-Sep-15 13:29N 57°09' W 002°05'0 0.0
2017-Sep-15 12:59N 57°09' W 002°05'0 0.0
2017-Sep-15 12:29N 57°09' W 002°05'0 0.0
2017-Sep-15 11:59N 57°09' W 002°05'0 0.0
2017-Sep-15 11:29N 57°09' W 002°05'0 0.0
2017-Sep-15 10:59N 57°09' W 002°05'0 0.0
2017-Sep-15 10:29N 57°09' W 002°05'0 0.0
2017-Sep-15 09:59N 57°09' W 002°05'0 0.0
2017-Sep-15 09:29N 57°09' W 002°05'0 0.0
2017-Sep-15 08:59N 57°09' W 002°05'0 0.0
2017-Sep-15 08:29N 57°09' W 002°05'0 0.0
2017-Sep-15 07:59N 57°09' W 002°05'0 0.0
2017-Sep-15 07:29N 57°09' W 002°05'0 0.0
2017-Sep-15 06:59N 57°09' W 002°05'0 0.0
2017-Sep-15 06:29N 57°09' W 002°05'0 0.0
2017-Sep-15 05:59N 57°09' W 002°05'1 1.1
2017-Sep-15 05:30N 57°09' W 002°05'611.6
2017-Sep-15 05:01N 57°13' W 001°57'713.7
2017-Sep-15 04:30N 57°18' W 001°49'813.3
2017-Sep-15 03:53N 57°25' W 001°41'712.9
2017-Sep-15 03:21N 57°32' W 001°37'513.3
2017-Sep-15 03:00N 57°36' W 001°38'612.8
2017-Sep-15 02:30N 57°43' W 001°38'612.6
2017-Sep-15 02:00N 57°49' W 001°38'3 0.1
2017-Sep-13 21:22N 57°52' W 001°36'717.9
2017-Sep-13 21:00N 57°46' W 001°37'917.8
2017-Sep-13 20:30N 57°37' W 001°37'917.3
2017-Sep-13 19:59N 57°28' W 001°38'1317.1
2017-Sep-13 19:12N 57°17' W 001°51'418.1
2017-Sep-13 19:00N 57°14' W 001°55'714.6
2017-Sep-13 18:31N 57°08' W 002°04'1 1.2
2017-Sep-13 18:00N 57°09' W 002°05'0 0.0
2017-Sep-13 17:29N 57°09' W 002°05'0 0.0
2017-Sep-13 16:59N 57°09' W 002°05'0 0.0
2017-Sep-13 16:29N 57°09' W 002°05'0 0.0
2017-Sep-13 15:59N 57°09' W 002°05'0 0.0
2017-Sep-13 15:29N 57°09' W 002°05'0 0.0
2017-Sep-13 14:59N 57°09' W 002°05'0 0.0
2017-Sep-13 14:29N 57°09' W 002°05'0 0.0
2017-Sep-13 13:59N 57°09' W 002°05'0 0.0
2017-Sep-13 13:29N 57°09' W 002°05'0 0.0
2017-Sep-13 12:59N 57°09' W 002°05'0 0.0
2017-Sep-13 12:29N 57°09' W 002°05'0 0.0
2017-Sep-13 11:59N 57°09' W 002°05'0 0.0
2017-Sep-13 11:29N 57°09' W 002°05'0 0.0
2017-Sep-13 10:59N 57°09' W 002°05'0 0.0
2017-Sep-13 10:29N 57°09' W 002°05'0 0.0
2017-Sep-13 09:59N 57°09' W 002°05'0 0.0
2017-Sep-13 09:29N 57°09' W 002°05'0 0.0
2017-Sep-13 08:59N 57°09' W 002°05'0 0.0
2017-Sep-13 08:29N 57°09' W 002°05'0 0.0
2017-Sep-13 07:59N 57°09' W 002°05'0 0.0
2017-Sep-13 07:29N 57°09' W 002°05'0 0.0
2017-Sep-13 06:59N 57°09' W 002°05'0 0.0
2017-Sep-13 06:29N 57°09' W 002°05'0 0.0
2017-Sep-13 05:59N 57°09' W 002°05'1 1.6
2017-Sep-13 05:30N 57°09' W 002°04'612.8
2017-Sep-13 05:00N 57°13' W 001°56'814.4
2017-Sep-13 04:27N 57°20' W 001°48'1413.0
2017-Sep-13 03:22N 57°33' W 001°37'1112.9
2017-Sep-13 02:33N 57°43' W 001°36'617.4
2017-Sep-13 02:13N 57°49' W 001°36'5 0.2
2017-Sep-11 21:18N 57°54' W 001°33'814.0
2017-Sep-11 20:43N 57°46' W 001°34'314.1
2017-Sep-11 20:30N 57°43' W 001°35'815.1
2017-Sep-11 20:00N 57°35' W 001°37'815.8
2017-Sep-11 19:30N 57°27' W 001°39'1016.7
2017-Sep-11 18:54N 57°19' W 001°48'717.0
2017-Sep-11 18:31N 57°13' W 001°55'713.8
2017-Sep-11 18:01N 57°08' W 002°04'1 1.3
2017-Sep-11 17:29N 57°09' W 002°05'0 0.0
2017-Sep-11 16:59N 57°09' W 002°05'0 0.0
2017-Sep-11 16:29N 57°09' W 002°05'0 0.0
2017-Sep-11 15:59N 57°09' W 002°05'0 0.0
2017-Sep-11 15:29N 57°09' W 002°05'0 0.0
2017-Sep-11 14:59N 57°09' W 002°05'0 0.0
2017-Sep-11 14:29N 57°09' W 002°05'0 0.0
2017-Sep-11 13:59N 57°09' W 002°05'0 0.0
2017-Sep-11 13:29N 57°09' W 002°05'0 0.0
2017-Sep-11 12:59N 57°09' W 002°05'0 0.0
2017-Sep-11 12:29N 57°09' W 002°05'0 0.0
2017-Sep-11 11:59N 57°09' W 002°05'0 0.0
2017-Sep-11 11:29N 57°09' W 002°05'0 0.0
2017-Sep-11 10:59N 57°09' W 002°05'0 0.0
2017-Sep-11 10:29N 57°09' W 002°05'0 0.0
2017-Sep-11 09:59N 57°09' W 002°05'0 0.0
2017-Sep-11 09:29N 57°09' W 002°05'0 0.0
2017-Sep-11 08:59N 57°09' W 002°05'0 0.0
2017-Sep-11 08:29N 57°09' W 002°05'0 0.0
2017-Sep-11 07:59N 57°09' W 002°05'0 0.0
2017-Sep-11 07:29N 57°09' W 002°05'0 0.0
2017-Sep-11 06:59N 57°09' W 002°05'0 0.0
2017-Sep-11 06:29N 57°09' W 002°05'0 0.0
2017-Sep-11 05:59N 57°09' W 002°05'1 1.5
2017-Sep-11 05:30N 57°08' W 002°04'612.8
2017-Sep-11 05:00N 57°13' W 001°56'2312.8
2017-Sep-11 03:12N 57°34' W 001°36'1014.2
2017-Sep-11 02:32N 57°43' W 001°36'014.4
2017-Sep-11 02:31N 57°43' W 001°36'84 3.2
2017-Sep-10 00:14N 59°03' W 002°27'311.8
2017-Sep-09 23:59N 59°01' W 002°31'613.6
2017-Sep-09 23:30N 59°00' W 002°43'714.4
2017-Sep-09 23:00N 59°01' W 002°57'1 0.8
2017-Sep-09 21:56N 58°60' W 002°58'614.7
2017-Sep-09 21:30N 58°60' W 002°46'7421.9
2017-Sep-09 18:07N 57°51' W 001°52'323.3
2017-Sep-09 18:00N 57°49' W 001°50'1223.6
2017-Sep-09 17:31N 57°38' W 001°45'1222.9
2017-Sep-09 17:00N 57°26' W 001°44'1122.6
2017-Sep-09 16:30N 57°16' W 001°53'1019.3
2017-Sep-09 16:00N 57°08' W 002°04'1 1.3
2017-Sep-09 15:29N 57°09' W 002°05'0 0.0
2017-Sep-09 14:59N 57°09' W 002°05'0 0.0
2017-Sep-09 14:29N 57°09' W 002°05'0 0.0
2017-Sep-09 13:59N 57°09' W 002°05'0 0.0
2017-Sep-09 13:29N 57°09' W 002°05'0 0.0
2017-Sep-09 12:59N 57°09' W 002°05'0 0.0
2017-Sep-09 12:29N 57°09' W 002°05'0 0.0
2017-Sep-09 11:59N 57°09' W 002°05'0 0.0
2017-Sep-09 11:29N 57°09' W 002°05'  
Track history (hours):
 
Tides and Currents Weather Stations Pressure Air Temp Water Temp Dewpoint Dewpoint Depression Visibility Wind Speed Wind Dir Waves Ship Positions

Hjaltland

Operator: NorthLink Orkey & Shetland Ferries Ltd

Last reported at 2017-Sep-19 10:59 UTC. Time now 2017-Sep-19 11:23 UTC.
Position N 57°09' W 002°05'.

Type: Passenger vessel. MMSI: 235450000.

Date/timePositionNaut miles runAvg speedWind from/ knotsBaromVisibWave heightAir tempDewpointWater temp
2017-Sep-19 10:59N 57°09' W 002°05'0 0.0
2017-Sep-19 10:29N 57°09' W 002°05'0 0.0
2017-Sep-19 09:59N 57°09' W 002°05'0 0.0
2017-Sep-19 09:29N 57°09' W 002°05'0 0.0
2017-Sep-19 08:59N 57°09' W 002°05'0 0.0
2017-Sep-19 08:29N 57°09' W 002°05'0 0.0
2017-Sep-19 07:59N 57°09' W 002°05'0 0.0
2017-Sep-19 07:29N 57°09' W 002°05'0 0.0
2017-Sep-19 06:59N 57°09' W 002°05'0 0.0
2017-Sep-19 06:29N 57°09' W 002°05'0 0.0
2017-Sep-19 05:59N 57°09' W 002°05'1 1.1
2017-Sep-19 05:31N 57°09' W 002°05'714.4
2017-Sep-19 05:00N 57°14' W 001°55'2419.8
2017-Sep-19 03:49N 57°35' W 001°37'720.7
2017-Sep-19 03:30N 57°41' W 001°40'8220.1
2017-Sep-18 23:26N 58°57' W 002°38'817.9
2017-Sep-18 23:00N 59°01' W 002°51'4 3.4
2017-Sep-18 21:55N 58°60' W 002°58'511.7
2017-Sep-18 21:30N 59°01' W 002°49'12 0.6
2017-Sep-18 00:25N 59°04' W 002°27'512.1
2017-Sep-18 00:00N 59°00' W 002°34'612.2
2017-Sep-17 23:30N 59°00' W 002°46'612.0
2017-Sep-17 23:01N 59°01' W 002°57'1 1.2
2017-Sep-17 22:01N 58°60' W 002°58'0 1.2
2017-Sep-17 21:59N 58°60' W 002°58'715.4
2017-Sep-17 21:30N 58°60' W 002°44'7222.0
2017-Sep-17 18:13N 57°53' W 001°50'523.1
2017-Sep-17 18:01N 57°48' W 001°47'1223.4
2017-Sep-17 17:31N 57°37' W 001°40'1222.9
2017-Sep-17 16:59N 57°25' W 001°41'1223.9
2017-Sep-17 16:30N 57°16' W 001°53'1019.3
2017-Sep-17 16:01N 57°08' W 002°04'1 1.2
2017-Sep-17 15:30N 57°09' W 002°05'0 0.0
2017-Sep-17 15:00N 57°09' W 002°05'0 0.0
2017-Sep-17 14:30N 57°09' W 002°05'0 0.0
2017-Sep-17 14:00N 57°09' W 002°05'0 0.0
2017-Sep-17 13:30N 57°09' W 002°05'0 0.0
2017-Sep-17 13:00N 57°09' W 002°05'0 0.0
2017-Sep-17 12:30N 57°09' W 002°05'0 0.0
2017-Sep-17 12:00N 57°09' W 002°05'0 0.0
2017-Sep-17 11:30N 57°09' W 002°05'0 0.0
2017-Sep-17 11:00N 57°09' W 002°05'0 0.0
2017-Sep-17 10:30N 57°09' W 002°05'0 0.0
2017-Sep-17 10:00N 57°09' W 002°05'0 0.0
2017-Sep-17 09:30N 57°09' W 002°05'0 0.0
2017-Sep-17 09:00N 57°09' W 002°05'0 0.0
2017-Sep-17 08:30N 57°09' W 002°05'0 0.0
2017-Sep-17 08:00N 57°09' W 002°05'0 0.0
2017-Sep-17 07:30N 57°09' W 002°05'0 0.0
2017-Sep-17 07:00N 57°09' W 002°05'0 0.0
2017-Sep-17 06:30N 57°09' W 002°05'0 0.0
2017-Sep-17 06:00N 57°09' W 002°05'0 1.0
2017-Sep-17 05:31N 57°09' W 002°05'611.0
2017-Sep-17 05:01N 57°12' W 001°57'1015.6
2017-Sep-17 04:24N 57°20' W 001°48'615.2
2017-Sep-17 04:01N 57°25' W 001°42'911.6
2017-Sep-17 03:13N 57°34' W 001°37'312.4
2017-Sep-17 03:00N 57°37' W 001°37'612.2
2017-Sep-17 02:29N 57°43' W 001°38'612.6
2017-Sep-17 02:00N 57°49' W 001°37'14 0.5
2017-Sep-15 20:01N 57°35' W 001°38'114.3
2017-Sep-15 19:57N 57°34' W 001°38'814.8
2017-Sep-15 19:25N 57°26' W 001°39'1115.7
2017-Sep-15 18:43N 57°17' W 001°51'316.0
2017-Sep-15 18:30N 57°14' W 001°55'715.0
2017-Sep-15 18:00N 57°09' W 002°04'1 1.5
2017-Sep-15 17:29N 57°09' W 002°05'0 0.0
2017-Sep-15 16:59N 57°09' W 002°05'0 0.0
2017-Sep-15 16:29N 57°09' W 002°05'0 0.0
2017-Sep-15 15:59N 57°09' W 002°05'0 0.0
2017-Sep-15 15:29N 57°09' W 002°05'0 0.0
2017-Sep-15 14:59N 57°09' W 002°05'0 0.0
2017-Sep-15 14:29N 57°09' W 002°05'0 0.0
2017-Sep-15 13:59N 57°09' W 002°05'0 0.0
2017-Sep-15 13:29N 57°09' W 002°05'0 0.0
2017-Sep-15 12:59N 57°09' W 002°05'0 0.0
2017-Sep-15 12:29N 57°09' W 002°05'0 0.0
2017-Sep-15 11:59N 57°09' W 002°05'0 0.0
2017-Sep-15 11:29N 57°09' W 002°05'0 0.0
2017-Sep-15 10:59N 57°09' W 002°05'0 0.0
2017-Sep-15 10:29N 57°09' W 002°05'0 0.0
2017-Sep-15 09:59N 57°09' W 002°05'0 0.0
2017-Sep-15 09:29N 57°09' W 002°05'0 0.0
2017-Sep-15 08:59N 57°09' W 002°05'0 0.0
2017-Sep-15 08:29N 57°09' W 002°05'0 0.0
2017-Sep-15 07:59N 57°09' W 002°05'0 0.0
2017-Sep-15 07:29N 57°09' W 002°05'0 0.0
2017-Sep-15 06:59N 57°09' W 002°05'0 0.0
2017-Sep-15 06:29N 57°09' W 002°05'0 0.0
2017-Sep-15 05:59N 57°09' W 002°05'1 1.1
2017-Sep-15 05:30N 57°09' W 002°05'611.6
2017-Sep-15 05:01N 57°13' W 001°57'713.7
2017-Sep-15 04:30N 57°18' W 001°49'813.3
2017-Sep-15 03:53N 57°25' W 001°41'712.9
2017-Sep-15 03:21N 57°32' W 001°37'513.3
2017-Sep-15 03:00N 57°36' W 001°38'612.8
2017-Sep-15 02:30N 57°43' W 001°38'612.6
2017-Sep-15 02:00N 57°49' W 001°38'3 0.1
2017-Sep-13 21:22N 57°52' W 001°36'717.9
2017-Sep-13 21:00N 57°46' W 001°37'917.8
2017-Sep-13 20:30N 57°37' W 001°37'917.3
2017-Sep-13 19:59N 57°28' W 001°38'1317.1
2017-Sep-13 19:12N 57°17' W 001°51'418.1
2017-Sep-13 19:00N 57°14' W 001°55'714.6
2017-Sep-13 18:31N 57°08' W 002°04'1 1.2
2017-Sep-13 18:00N 57°09' W 002°05'0 0.0
2017-Sep-13 17:29N 57°09' W 002°05'0 0.0
2017-Sep-13 16:59N 57°09' W 002°05'0 0.0
2017-Sep-13 16:29N 57°09' W 002°05'0 0.0
2017-Sep-13 15:59N 57°09' W 002°05'0 0.0
2017-Sep-13 15:29N 57°09' W 002°05'0 0.0
2017-Sep-13 14:59N 57°09' W 002°05'0 0.0
2017-Sep-13 14:29N 57°09' W 002°05'0 0.0
2017-Sep-13 13:59N 57°09' W 002°05'0 0.0
2017-Sep-13 13:29N 57°09' W 002°05'0 0.0
2017-Sep-13 12:59N 57°09' W 002°05'0 0.0
2017-Sep-13 12:29N 57°09' W 002°05'0 0.0
2017-Sep-13 11:59N 57°09' W 002°05'0 0.0
2017-Sep-13 11:29N 57°09' W 002°05'0 0.0
2017-Sep-13 10:59N 57°09' W 002°05'0 0.0
2017-Sep-13 10:29N 57°09' W 002°05'0 0.0
2017-Sep-13 09:59N 57°09' W 002°05'0 0.0
2017-Sep-13 09:29N 57°09' W 002°05'0 0.0
2017-Sep-13 08:59N 57°09' W 002°05'0 0.0
2017-Sep-13 08:29N 57°09' W 002°05'0 0.0
2017-Sep-13 07:59N 57°09' W 002°05'0 0.0
2017-Sep-13 07:29N 57°09' W 002°05'0 0.0
2017-Sep-13 06:59N 57°09' W 002°05'0 0.0
2017-Sep-13 06:29N 57°09' W 002°05'0 0.0
2017-Sep-13 05:59N 57°09' W 002°05'1 1.6
2017-Sep-13 05:30N 57°09' W 002°04'612.8
2017-Sep-13 05:00N 57°13' W 001°56'814.4
2017-Sep-13 04:27N 57°20' W 001°48'1413.0
2017-Sep-13 03:22N 57°33' W 001°37'1112.9
2017-Sep-13 02:33N 57°43' W 001°36'617.4
2017-Sep-13 02:13N 57°49' W 001°36'5 0.2
2017-Sep-11 21:18N 57°54' W 001°33'814.0
2017-Sep-11 20:43N 57°46' W 001°34'314.1
2017-Sep-11 20:30N 57°43' W 001°35'815.1
2017-Sep-11 20:00N 57°35' W 001°37'815.8
2017-Sep-11 19:30N 57°27' W 001°39'1016.7
2017-Sep-11 18:54N 57°19' W 001°48'717.0
2017-Sep-11 18:31N 57°13' W 001°55'713.8
2017-Sep-11 18:01N 57°08' W 002°04'1 1.3
2017-Sep-11 17:29N 57°09' W 002°05'0 0.0
2017-Sep-11 16:59N 57°09' W 002°05'0 0.0
2017-Sep-11 16:29N 57°09' W 002°05'0 0.0
2017-Sep-11 15:59N 57°09' W 002°05'0 0.0
2017-Sep-11 15:29N 57°09' W 002°05'0 0.0
2017-Sep-11 14:59N 57°09' W 002°05'0 0.0
2017-Sep-11 14:29N 57°09' W 002°05'0 0.0
2017-Sep-11 13:59N 57°09' W 002°05'0 0.0
2017-Sep-11 13:29N 57°09' W 002°05'0 0.0
2017-Sep-11 12:59N 57°09' W 002°05'0 0.0
2017-Sep-11 12:29N 57°09' W 002°05'0 0.0
2017-Sep-11 11:59N 57°09' W 002°05'0 0.0
2017-Sep-11 11:29N 57°09' W 002°05'0 0.0
2017-Sep-11 10:59N 57°09' W 002°05'0 0.0
2017-Sep-11 10:29N 57°09' W 002°05'0 0.0
2017-Sep-11 09:59N 57°09' W 002°05'0 0.0
2017-Sep-11 09:29N 57°09' W 002°05'0 0.0
2017-Sep-11 08:59N 57°09' W 002°05'0 0.0
2017-Sep-11 08:29N 57°09' W 002°05'0 0.0
2017-Sep-11 07:59N 57°09' W 002°05'0 0.0
2017-Sep-11 07:29N 57°09' W 002°05'0 0.0
2017-Sep-11 06:59N 57°09' W 002°05'0 0.0
2017-Sep-11 06:29N 57°09' W 002°05'0 0.0
2017-Sep-11 05:59N 57°09' W 002°05'1 1.5
2017-Sep-11 05:30N 57°08' W 002°04'612.8
2017-Sep-11 05:00N 57°13' W 001°56'2312.8
2017-Sep-11 03:12N 57°34' W 001°36'1014.2
2017-Sep-11 02:32N 57°43' W 001°36'014.4
2017-Sep-11 02:31N 57°43' W 001°36'84 3.2
2017-Sep-10 00:14N 59°03' W 002°27'311.8
2017-Sep-09 23:59N 59°01' W 002°31'613.6
2017-Sep-09 23:30N 59°00' W 002°43'714.4
2017-Sep-09 23:00N 59°01' W 002°57'1 0.8
2017-Sep-09 21:56N 58°60' W 002°58'614.7
2017-Sep-09 21:30N 58°60' W 002°46'7421.9
2017-Sep-09 18:07N 57°51' W 001°52'323.3
2017-Sep-09 18:00N 57°49' W 001°50'1223.6
2017-Sep-09 17:31N 57°38' W 001°45'1222.9
2017-Sep-09 17:00N 57°26' W 001°44'1122.6
2017-Sep-09 16:30N 57°16' W 001°53'1019.3
2017-Sep-09 16:00N 57°08' W 002°04'1 1.3
2017-Sep-09 15:29N 57°09' W 002°05'0 0.0
2017-Sep-09 14:59N 57°09' W 002°05'0 0.0
2017-Sep-09 14:29N 57°09' W 002°05'0 0.0
2017-Sep-09 13:59N 57°09' W 002°05'0 0.0
2017-Sep-09 13:29N 57°09' W 002°05'0 0.0
2017-Sep-09 12:59N 57°09' W 002°05'0 0.0
2017-Sep-09 12:29N 57°09' W 002°05'0 0.0
2017-Sep-09 11:59N 57°09' W 002°05'0 0.0
2017-Sep-09 11:29N 57°09' W 002°05'  

Dump ship's entire track history